createdAt,value
2017-04-11T00:00:42.745Z,1016.57
2017-04-11T00:01:43.982Z,1016.59
2017-04-11T00:02:45.228Z,1016.57
2017-04-11T00:03:46.494Z,1016.56
2017-04-11T00:04:47.742Z,1016.51
2017-04-11T00:05:48.989Z,1016.51
2017-04-11T00:06:50.321Z,1016.46
2017-04-11T00:07:51.539Z,1016.5
2017-04-11T00:08:52.800Z,1016.51
2017-04-11T00:09:54.160Z,1016.49
2017-04-11T00:10:55.497Z,1016.51
2017-04-11T00:11:56.736Z,1016.48
2017-04-11T00:12:57.997Z,1016.46
2017-04-11T00:13:59.214Z,1016.47
2017-04-11T00:15:00.511Z,1016.49
2017-04-11T00:16:01.912Z,1016.48
2017-04-11T00:17:03.132Z,1016.47
2017-04-11T00:18:04.368Z,1016.5
2017-04-11T00:19:05.675Z,1016.48
2017-04-11T00:20:06.911Z,1016.5
2017-04-11T00:21:08.159Z,1016.46
2017-04-11T00:22:09.411Z,1016.45
2017-04-11T00:23:10.752Z,1016.48
2017-04-11T00:24:12.029Z,1016.54
2017-04-11T00:25:13.286Z,1016.49
2017-04-11T00:26:14.504Z,1016.48
2017-04-11T00:27:15.747Z,1016.43
2017-04-11T00:28:16.982Z,1016.47
2017-04-11T00:29:18.415Z,1016.45
2017-04-11T00:30:19.628Z,1016.43
2017-04-11T00:31:20.860Z,1016.43
2017-04-11T00:32:22.151Z,1016.4
2017-04-11T00:33:23.327Z,1016.42
2017-04-11T00:34:24.564Z,1016.39
2017-04-11T00:35:25.811Z,1016.38
2017-04-11T00:36:27.047Z,1016.42
2017-04-11T00:37:28.341Z,1016.4
2017-04-11T00:38:29.576Z,1016.37
2017-04-11T00:39:30.824Z,1016.37
2017-04-11T00:40:32.062Z,1016.42
2017-04-11T00:41:33.301Z,1016.39
2017-04-11T00:42:34.638Z,1016.35
2017-04-11T00:43:35.873Z,1016.38
2017-04-11T00:44:37.117Z,1016.36
2017-04-11T00:45:38.349Z,1016.37
2017-04-11T00:46:39.587Z,1016.41
2017-04-11T00:47:40.884Z,1016.39
2017-04-11T00:48:42.187Z,1016.4
2017-04-11T00:49:43.459Z,1016.4
2017-04-11T00:50:44.697Z,1016.42
2017-04-11T00:51:45.932Z,1016.35
2017-04-11T00:52:47.171Z,1016.35
2017-04-11T00:53:48.470Z,1016.33
2017-04-11T00:54:49.791Z,1016.33
2017-04-11T00:55:51.058Z,1016.32
2017-04-11T00:56:52.297Z,1016.32
2017-04-11T00:57:53.693Z,1016.33
2017-04-11T00:58:54.899Z,1016.33
2017-04-11T00:59:56.138Z,1016.28
2017-04-11T01:00:57.401Z,1016.3
2017-04-11T01:01:58.658Z,1016.29
2017-04-11T01:02:59.893Z,1016.3
2017-04-11T01:04:01.130Z,1016.29
2017-04-11T01:05:02.373Z,1016.3
2017-04-11T01:06:03.602Z,1016.28
2017-04-11T01:07:04.869Z,1016.33
2017-04-11T01:08:06.105Z,1016.28
2017-04-11T01:09:07.372Z,1016.28
2017-04-11T01:10:08.608Z,1016.32
2017-04-11T01:11:09.825Z,1016.29
2017-04-11T01:12:11.103Z,1016.27
2017-04-11T01:13:12.375Z,1016.3
2017-04-11T01:14:13.629Z,1016.3
2017-04-11T01:15:14.891Z,1016.27
2017-04-11T01:16:16.113Z,1016.3
2017-04-11T01:17:17.392Z,1016.27
2017-04-11T01:18:18.605Z,1016.29
2017-04-11T01:19:19.856Z,1016.31
2017-04-11T01:20:21.169Z,1016.32
2017-04-11T01:21:22.413Z,1016.28
2017-04-11T01:22:23.758Z,1016.33
2017-04-11T01:23:25.001Z,1016.32
2017-04-11T01:24:26.235Z,1016.34
2017-04-11T01:25:27.470Z,1016.36
2017-04-11T01:26:28.721Z,1016.36
2017-04-11T01:27:29.994Z,1016.32
2017-04-11T01:28:31.265Z,1016.33
2017-04-11T01:29:32.606Z,1016.31
2017-04-11T01:30:33.809Z,1016.37
2017-04-11T01:31:35.042Z,1016.35
2017-04-11T01:32:36.305Z,1016.31
2017-04-11T01:33:37.564Z,1016.37
2017-04-11T01:34:38.817Z,1016.4
2017-04-11T01:35:40.024Z,1016.38
2017-04-11T01:36:41.269Z,1016.41
2017-04-11T01:37:42.504Z,1016.36
2017-04-11T01:38:43.731Z,1016.36
2017-04-11T01:39:44.972Z,1016.36
2017-04-11T01:40:46.350Z,1016.4
2017-04-11T01:41:47.574Z,1016.41
2017-04-11T01:42:48.841Z,1016.43
2017-04-11T01:43:50.070Z,1016.38
2017-04-11T01:44:51.331Z,1016.42
2017-04-11T01:45:52.559Z,1016.42
2017-04-11T01:46:53.796Z,1016.43
2017-04-11T01:47:55.056Z,1016.46
2017-04-11T01:48:56.296Z,1016.46
2017-04-11T01:49:57.533Z,1016.48
2017-04-11T01:50:58.817Z,1016.46
2017-04-11T01:52:00.074Z,1016.48
2017-04-11T01:53:01.312Z,1016.51
2017-04-11T01:54:02.558Z,1016.5
2017-04-11T01:55:03.821Z,1016.51
2017-04-11T01:56:05.062Z,1016.5
2017-04-11T01:57:06.296Z,1016.46
2017-04-11T01:58:07.557Z,1016.48
2017-04-11T01:59:08.796Z,1016.48
2017-04-11T02:00:10.150Z,1016.5
2017-04-11T02:01:11.355Z,1016.5
2017-04-11T02:02:12.596Z,1016.54
2017-04-11T02:03:13.833Z,1016.54
2017-04-11T02:04:15.063Z,1016.52
2017-04-11T02:05:16.442Z,1016.52
2017-04-11T02:06:17.703Z,1016.55
2017-04-11T02:07:18.940Z,1016.53
2017-04-11T02:08:20.173Z,1016.48
2017-04-11T02:09:21.415Z,1016.47
2017-04-11T02:10:22.735Z,1016.49
2017-04-11T02:11:23.976Z,1016.5
2017-04-11T02:12:25.206Z,1016.49
2017-04-11T02:13:26.454Z,1016.53
2017-04-11T02:14:27.685Z,1016.53
2017-04-11T02:15:28.921Z,1016.56
2017-04-11T02:16:30.163Z,1016.54
2017-04-11T02:17:31.391Z,1016.51
2017-04-11T02:18:32.631Z,1016.55
2017-04-11T02:19:34.070Z,1016.52
2017-04-11T02:20:35.325Z,1016.54
2017-04-11T02:21:36.528Z,1016.53
2017-04-11T02:22:37.810Z,1016.53
2017-04-11T02:23:39.061Z,1016.48
2017-04-11T02:24:40.309Z,1016.46
2017-04-11T02:25:41.594Z,1016.48
2017-04-11T02:26:42.781Z,1016.52
2017-04-11T02:27:44.021Z,1016.5
2017-04-11T02:28:45.284Z,1016.48
2017-04-11T02:29:46.511Z,1016.48
2017-04-11T02:30:47.762Z,1016.49
2017-04-11T02:31:48.977Z,1016.51
2017-04-11T02:32:50.313Z,1016.5
2017-04-11T02:33:51.664Z,1016.47
2017-04-11T02:34:52.925Z,1016.46
2017-04-11T02:35:54.166Z,1016.49
2017-04-11T02:36:55.444Z,1016.48
2017-04-11T02:37:56.706Z,1016.48
2017-04-11T02:38:57.965Z,1016.53
2017-04-11T02:39:59.191Z,1016.49
2017-04-11T02:41:00.440Z,1016.53
2017-04-11T02:42:01.671Z,1016.58
2017-04-11T02:43:02.954Z,1016.56
2017-04-11T02:44:04.220Z,1016.54
2017-04-11T02:45:05.462Z,1016.57
2017-04-11T02:46:06.699Z,1016.58
2017-04-11T02:47:07.955Z,1016.54
2017-04-11T02:48:09.237Z,1016.56
2017-04-11T02:49:10.494Z,1016.55
2017-04-11T02:50:11.756Z,1016.59
2017-04-11T02:51:13.005Z,1016.61
2017-04-11T02:52:14.261Z,1016.57
2017-04-11T02:53:15.512Z,1016.58
2017-04-11T02:54:16.904Z,1016.59
2017-04-11T02:55:18.231Z,1016.62
2017-04-11T02:56:19.516Z,1016.67
2017-04-11T02:57:20.700Z,1016.64
2017-04-11T02:58:21.964Z,1016.66
2017-04-11T02:59:23.204Z,1016.67
2017-04-11T03:00:24.460Z,1016.66
2017-04-11T03:01:25.687Z,1016.63
2017-04-11T03:02:26.934Z,1016.65
2017-04-11T03:03:28.226Z,1016.62
2017-04-11T03:04:29.500Z,1016.65
2017-04-11T03:05:30.734Z,1016.65
2017-04-11T03:06:31.969Z,1016.69
2017-04-11T03:07:33.211Z,1016.67
2017-04-11T03:08:34.573Z,1016.66
2017-04-11T03:09:35.819Z,1016.69
2017-04-11T03:10:37.030Z,1016.71
2017-04-11T03:11:38.265Z,1016.7
2017-04-11T03:12:39.532Z,1016.72
2017-04-11T03:13:40.836Z,1016.66
2017-04-11T03:14:42.085Z,1016.68
2017-04-11T03:15:43.335Z,1016.71
2017-04-11T03:16:44.570Z,1016.73
2017-04-11T03:17:45.809Z,1016.75
2017-04-11T03:18:47.024Z,1016.7
2017-04-11T03:19:48.260Z,1016.71
2017-04-11T03:20:49.537Z,1016.74
2017-04-11T03:21:50.832Z,1016.75
2017-04-11T03:22:52.135Z,1016.72
2017-04-11T03:23:53.380Z,1016.74
2017-04-11T03:24:54.616Z,1016.8
2017-04-11T03:25:55.875Z,1016.79
2017-04-11T03:26:57.105Z,1016.76
2017-04-11T03:27:58.411Z,1016.81
2017-04-11T03:28:59.696Z,1016.75
2017-04-11T03:30:00.931Z,1016.78
2017-04-11T03:31:02.188Z,1016.84
2017-04-11T03:32:03.441Z,1016.81
2017-04-11T03:33:04.847Z,1016.86
2017-04-11T03:34:06.133Z,1016.85
2017-04-11T03:35:07.383Z,1016.86
2017-04-11T03:36:08.615Z,1016.93
2017-04-11T03:37:09.860Z,1016.91
2017-04-11T03:38:11.094Z,1016.85
2017-04-11T03:39:12.338Z,1016.89
2017-04-11T03:40:13.571Z,1016.85
2017-04-11T03:41:14.835Z,1016.84
2017-04-11T03:42:16.091Z,1016.86
2017-04-11T03:43:17.327Z,1016.87
2017-04-11T03:44:18.560Z,1016.86
2017-04-11T03:45:19.841Z,1016.87
2017-04-11T03:46:21.058Z,1016.93
2017-04-11T03:47:22.301Z,1016.9
2017-04-11T03:48:23.550Z,1016.93
2017-04-11T03:49:24.791Z,1016.92
2017-04-11T03:50:26.032Z,1016.95
2017-04-11T03:51:27.285Z,1016.93
2017-04-11T03:52:28.530Z,1016.97
2017-04-11T03:53:29.790Z,1016.94
2017-04-11T03:54:31.011Z,1016.97
2017-04-11T03:55:32.263Z,1016.99
2017-04-11T03:56:33.572Z,1016.97
2017-04-11T03:57:34.806Z,1017.01
2017-04-11T03:58:36.037Z,1016.95
2017-04-11T03:59:37.277Z,1016.95
2017-04-11T04:00:38.543Z,1016.92
2017-04-11T04:01:39.768Z,1016.97
2017-04-11T04:02:41.004Z,1017
2017-04-11T04:03:42.262Z,1016.97
2017-04-11T04:04:43.503Z,1016.98
2017-04-11T04:05:44.804Z,1016.99
2017-04-11T04:06:46.449Z,1017.02
2017-04-11T04:07:47.685Z,1017.05
2017-04-11T04:08:48.919Z,1017.05
2017-04-11T04:09:50.163Z,1017.09
2017-04-11T04:10:51.409Z,1017.1
2017-04-11T04:11:52.674Z,1017.15
2017-04-11T04:12:53.927Z,1017.19
2017-04-11T04:13:55.162Z,1017.16
2017-04-11T04:14:56.453Z,1017.17
2017-04-11T04:15:57.715Z,1017.21
2017-04-11T04:16:58.967Z,1017.2
2017-04-11T04:18:00.254Z,1017.21
2017-04-11T04:19:01.482Z,1017.21
2017-04-11T04:20:02.780Z,1017.21
2017-04-11T04:21:04.029Z,1017.21
2017-04-11T04:22:05.270Z,1017.21
2017-04-11T04:23:06.523Z,1017.24
2017-04-11T04:24:07.748Z,1017.27
2017-04-11T04:25:09.173Z,1017.27
2017-04-11T04:26:10.455Z,1017.24
2017-04-11T04:27:11.683Z,1017.27
2017-04-11T04:28:12.914Z,1017.27
2017-04-11T04:29:14.151Z,1017.29
2017-04-11T04:30:15.392Z,1017.31
2017-04-11T04:31:16.631Z,1017.3
2017-04-11T04:32:17.891Z,1017.32
2017-04-11T04:33:19.129Z,1017.35
2017-04-11T04:34:20.368Z,1017.35
2017-04-11T04:35:21.589Z,1017.34
2017-04-11T04:36:22.836Z,1017.36
2017-04-11T04:37:24.193Z,1017.37
2017-04-11T04:38:25.384Z,1017.32
2017-04-11T04:39:26.699Z,1017.34
2017-04-11T04:40:27.928Z,1017.32
2017-04-11T04:41:29.161Z,1017.32
2017-04-11T04:42:30.382Z,1017.37
2017-04-11T04:43:31.636Z,1017.35
2017-04-11T04:44:32.880Z,1017.36
2017-04-11T04:45:34.271Z,1017.37
2017-04-11T04:46:35.499Z,1017.32
2017-04-11T04:47:36.747Z,1017.35
2017-04-11T04:48:37.994Z,1017.26
2017-04-11T04:49:39.215Z,1017.33
2017-04-11T04:50:40.472Z,1017.33
2017-04-11T04:51:41.825Z,1017.33
2017-04-11T04:52:43.055Z,1017.34
2017-04-11T04:53:44.322Z,1017.33
2017-04-11T04:54:45.568Z,1017.37
2017-04-11T04:55:46.832Z,1017.39
2017-04-11T04:56:48.101Z,1017.4
2017-04-11T04:57:49.341Z,1017.4
2017-04-11T04:58:50.592Z,1017.47
2017-04-11T04:59:51.945Z,1017.41
2017-04-11T05:00:53.166Z,1017.45
2017-04-11T05:01:54.402Z,1017.48
2017-04-11T05:02:55.647Z,1017.49
2017-04-11T05:03:56.891Z,1017.47
2017-04-11T05:04:58.128Z,1017.48
2017-04-11T05:05:59.361Z,1017.47
2017-04-11T05:07:00.599Z,1017.43
2017-04-11T05:08:01.829Z,1017.43
2017-04-11T05:09:03.071Z,1017.47
2017-04-11T05:10:04.439Z,1017.45
2017-04-11T05:11:05.711Z,1017.5
2017-04-11T05:12:06.896Z,1017.49
2017-04-11T05:13:08.125Z,1017.54
2017-04-11T05:14:09.358Z,1017.47
2017-04-11T05:15:10.600Z,1017.5
2017-04-11T05:16:11.832Z,1017.47
2017-04-11T05:17:13.080Z,1017.51
2017-04-11T05:18:14.521Z,1017.5
2017-04-11T05:19:15.769Z,1017.51
2017-04-11T05:20:17.006Z,1017.53
2017-04-11T05:21:18.230Z,1017.52
2017-04-11T05:22:19.475Z,1017.53
2017-04-11T05:23:20.703Z,1017.54
2017-04-11T05:24:21.937Z,1017.58
2017-04-11T05:25:23.199Z,1017.61
2017-04-11T05:26:24.412Z,1017.67
2017-04-11T05:27:25.643Z,1017.72
2017-04-11T05:28:26.902Z,1017.7
2017-04-11T05:29:28.163Z,1017.68
2017-04-11T05:30:29.383Z,1017.64
2017-04-11T05:31:30.643Z,1017.65
2017-04-11T05:32:31.880Z,1017.69
2017-04-11T05:33:33.109Z,1017.72
2017-04-11T05:34:34.350Z,1017.69
2017-04-11T05:35:35.594Z,1017.7
2017-04-11T05:36:36.905Z,1017.72
2017-04-11T05:37:38.141Z,1017.75
2017-04-11T05:38:39.447Z,1017.74
2017-04-11T05:39:40.669Z,1017.68
2017-04-11T05:40:41.904Z,1017.7
2017-04-11T05:41:43.143Z,1017.73
2017-04-11T05:42:44.504Z,1017.74
2017-04-11T05:43:45.759Z,1017.75
2017-04-11T05:44:46.988Z,1017.77
2017-04-11T05:45:48.211Z,1017.79
2017-04-11T05:46:49.460Z,1017.83
2017-04-11T05:47:50.690Z,1017.84
2017-04-11T05:48:51.955Z,1017.86
2017-04-11T05:49:53.309Z,1017.82
2017-04-11T05:50:54.558Z,1017.86
2017-04-11T05:51:55.816Z,1017.81
2017-04-11T05:52:57.060Z,1017.85
2017-04-11T05:53:58.297Z,1017.87
2017-04-11T05:54:59.553Z,1017.84
2017-04-11T05:56:00.775Z,1017.87
2017-04-11T05:57:02.114Z,1017.86
2017-04-11T05:58:03.353Z,1017.83
2017-04-11T05:59:04.595Z,1017.89
2017-04-11T06:00:05.941Z,1017.91
2017-04-11T06:01:07.191Z,1017.89
2017-04-11T06:02:08.464Z,1017.91
2017-04-11T06:03:09.731Z,1017.89
2017-04-11T06:04:10.976Z,1017.9
2017-04-11T06:05:12.227Z,1017.92
2017-04-11T06:06:13.457Z,1017.95
2017-04-11T06:07:14.717Z,1017.95
2017-04-11T06:08:16.054Z,1017.93
2017-04-11T06:09:17.267Z,1017.96
2017-04-11T06:10:18.526Z,1017.94
2017-04-11T06:11:19.775Z,1017.96
2017-04-11T06:12:21.020Z,1017.94
2017-04-11T06:13:22.261Z,1017.92
2017-04-11T06:14:23.500Z,1017.95
2017-04-11T06:15:24.753Z,1018.02
2017-04-11T06:16:26.004Z,1017.97
2017-04-11T06:17:27.238Z,1017.99
2017-04-11T06:18:28.474Z,1018.02
2017-04-11T06:19:29.725Z,1018
2017-04-11T06:20:31.010Z,1018.01
2017-04-11T06:21:32.373Z,1018.02
2017-04-11T06:22:33.621Z,1018.05
2017-04-11T06:23:34.880Z,1018.09
2017-04-11T06:24:36.166Z,1018.09
2017-04-11T06:25:37.408Z,1018.08
2017-04-11T06:26:38.781Z,1018.14
2017-04-11T06:27:40.021Z,1018.14
2017-04-11T06:28:41.409Z,1018.11
2017-04-11T06:29:42.644Z,1018.15
2017-04-11T06:30:43.898Z,1018.15
2017-04-11T06:31:45.137Z,1018.12
2017-04-11T06:32:46.393Z,1018.1
2017-04-11T06:33:47.642Z,1018.15
2017-04-11T06:34:48.909Z,1018.12
2017-04-11T06:35:50.227Z,1018.15
2017-04-11T06:36:51.491Z,1018.16
2017-04-11T06:37:52.794Z,1018.17
2017-04-11T06:38:54.050Z,1018.14
2017-04-11T06:39:55.278Z,1018.12
2017-04-11T06:40:56.573Z,1018.13
2017-04-11T06:41:57.828Z,1018.12
2017-04-11T06:42:59.047Z,1018.14
2017-04-11T06:44:00.288Z,1018.13
2017-04-11T06:45:01.535Z,1018.15
2017-04-11T06:46:02.766Z,1018.16
2017-04-11T06:47:04.083Z,1018.16
2017-04-11T06:48:05.344Z,1018.15
2017-04-11T06:49:06.585Z,1018.12
2017-04-11T06:50:07.824Z,1018.13
2017-04-11T06:51:09.060Z,1018.14
2017-04-11T06:52:10.305Z,1018.08
2017-04-11T06:53:11.531Z,1018.1
2017-04-11T06:54:13.338Z,1018.1
2017-04-11T06:55:14.559Z,1018.1
2017-04-11T06:56:15.849Z,1018.08
2017-04-11T06:57:17.047Z,1018.07
2017-04-11T06:58:18.367Z,1018.05
2017-04-11T06:59:19.618Z,1018.05
2017-04-11T07:00:20.859Z,1018.07
2017-04-11T07:01:22.094Z,1018.09
2017-04-11T07:02:23.342Z,1018.05
2017-04-11T07:03:24.594Z,1018.02
2017-04-11T07:04:25.923Z,1018.04
2017-04-11T07:05:27.160Z,1018.08
2017-04-11T07:06:28.417Z,1018.07
2017-04-11T07:07:29.676Z,1018.03
2017-04-11T07:08:30.909Z,1018.07
2017-04-11T07:09:32.553Z,1018.02
2017-04-11T07:10:33.793Z,1018
2017-04-11T07:11:35.050Z,1018.04
2017-04-11T07:12:36.273Z,1018
2017-04-11T07:13:37.504Z,1017.99
2017-04-11T07:14:38.793Z,1017.98
2017-04-11T07:15:40.257Z,1017.96
2017-04-11T07:16:41.523Z,1017.95
2017-04-11T07:17:42.758Z,1017.88
2017-04-11T07:18:44.009Z,1017.91
2017-04-11T07:19:45.285Z,1017.92
2017-04-11T07:20:46.584Z,1017.91
2017-04-11T07:21:47.827Z,1017.93
2017-04-11T07:22:49.088Z,1017.92
2017-04-11T07:23:50.353Z,1017.82
2017-04-11T07:24:51.630Z,1017.88
2017-04-11T07:25:52.883Z,1017.86
2017-04-11T07:26:54.096Z,1017.9
2017-04-11T07:27:55.332Z,1017.98
2017-04-11T07:28:56.578Z,1018.03
2017-04-11T07:29:57.852Z,1018
2017-04-11T07:30:59.069Z,1017.99
2017-04-11T07:32:00.321Z,1018
2017-04-11T07:33:01.557Z,1018
2017-04-11T07:34:02.844Z,1018.05
2017-04-11T07:35:04.085Z,1018.05
2017-04-11T07:36:05.326Z,1018.13
2017-04-11T07:37:06.568Z,1018.11
2017-04-11T07:38:07.803Z,1018.12
2017-04-11T07:39:09.082Z,1018.17
2017-04-11T07:40:10.334Z,1018.19
2017-04-11T07:41:11.570Z,1018.18
2017-04-11T07:42:12.874Z,1018.19
2017-04-11T07:43:14.130Z,1018.19
2017-04-11T07:44:15.380Z,1018.21
2017-04-11T07:45:16.634Z,1018.21
2017-04-11T07:46:17.875Z,1018.23
2017-04-11T07:47:19.128Z,1018.24
2017-04-11T07:48:20.376Z,1018.21
2017-04-11T07:49:21.627Z,1018.21
2017-04-11T07:50:22.903Z,1018.2
2017-04-11T07:51:24.121Z,1018.25
2017-04-11T07:52:25.364Z,1018.25
2017-04-11T07:53:26.646Z,1018.21
2017-04-11T07:54:27.902Z,1018.22
2017-04-11T07:55:29.107Z,1018.19
2017-04-11T07:56:30.412Z,1018.25
2017-04-11T07:57:31.668Z,1018.24
2017-04-11T07:58:32.933Z,1018.22
2017-04-11T07:59:34.204Z,1018.22
2017-04-11T08:00:35.448Z,1018.25
2017-04-11T08:01:36.827Z,1018.25
2017-04-11T08:02:38.138Z,1018.26
2017-04-11T08:03:39.371Z,1018.25
2017-04-11T08:04:40.628Z,1018.28
2017-04-11T08:05:41.861Z,1018.31
2017-04-11T08:06:43.111Z,1018.29
2017-04-11T08:07:44.369Z,1018.25
2017-04-11T08:08:45.630Z,1018.26
2017-04-11T08:09:46.869Z,1018.25
2017-04-11T08:10:48.124Z,1018.22
2017-04-11T08:11:49.409Z,1018.26
2017-04-11T08:12:50.738Z,1018.25
2017-04-11T08:13:51.975Z,1018.25
2017-04-11T08:14:53.202Z,1018.26
2017-04-11T08:15:54.472Z,1018.28
2017-04-11T08:16:55.701Z,1018.26
2017-04-11T08:17:57.000Z,1018.28
2017-04-11T08:18:58.294Z,1018.31
2017-04-11T08:19:59.567Z,1018.31
2017-04-11T08:21:00.821Z,1018.3
2017-04-11T08:22:02.063Z,1018.31
2017-04-11T08:23:03.313Z,1018.37
2017-04-11T08:24:04.597Z,1018.34
2017-04-11T08:25:05.849Z,1018.4
2017-04-11T08:26:07.086Z,1018.42
2017-04-11T08:27:08.393Z,1018.43
2017-04-11T08:28:09.679Z,1018.39
2017-04-11T08:29:10.912Z,1018.45
2017-04-11T08:30:12.186Z,1018.43
2017-04-11T08:31:13.409Z,1018.41
2017-04-11T08:32:14.751Z,1018.42
2017-04-11T08:33:16.004Z,1018.45
2017-04-11T08:34:17.241Z,1018.46
2017-04-11T08:35:18.491Z,1018.42
2017-04-11T08:36:19.738Z,1018.41
2017-04-11T08:37:21.024Z,1018.39
2017-04-11T08:38:22.344Z,1018.39
2017-04-11T08:39:23.801Z,1018.42
2017-04-11T08:40:25.130Z,1018.41
2017-04-11T08:41:26.529Z,1018.4
2017-04-11T08:42:27.809Z,1018.35
2017-04-11T08:43:29.068Z,1018.36
2017-04-11T08:44:30.304Z,1018.41
2017-04-11T08:45:31.553Z,1018.4
2017-04-11T08:46:32.829Z,1018.43
2017-04-11T08:47:34.055Z,1018.44
2017-04-11T08:48:35.364Z,1018.49
2017-04-11T08:49:36.698Z,1018.46
2017-04-11T08:50:37.939Z,1018.54
2017-04-11T08:51:39.206Z,1018.55
2017-04-11T08:52:40.424Z,1018.54
2017-04-11T08:53:41.672Z,1018.57
2017-04-11T08:54:42.996Z,1018.57
2017-04-11T08:55:44.260Z,1018.57
2017-04-11T08:56:45.499Z,1018.61
2017-04-11T08:57:46.741Z,1018.57
2017-04-11T08:58:47.984Z,1018.56
2017-04-11T08:59:49.295Z,1018.57
2017-04-11T09:00:50.569Z,1018.57
2017-04-11T09:01:51.912Z,1018.57
2017-04-11T09:02:53.157Z,1018.51
2017-04-11T09:03:54.386Z,1018.6
2017-04-11T09:04:55.623Z,1018.63
2017-04-11T09:05:56.882Z,1018.65
2017-04-11T09:06:58.189Z,1018.63
2017-04-11T09:07:59.433Z,1018.56
2017-04-11T09:09:00.671Z,1018.71
2017-04-11T09:10:01.924Z,1019.71
2017-04-11T09:11:03.167Z,1019.76
2017-04-11T09:12:04.450Z,1019.69
2017-04-11T09:13:05.735Z,1019.17
2017-04-11T09:14:06.997Z,1019.68
2017-04-11T09:15:08.237Z,1019.54
2017-04-11T09:16:09.476Z,1018.68
2017-04-11T09:17:10.726Z,1019.22
2017-04-11T09:18:11.984Z,1018.72
2017-04-11T09:19:13.275Z,1018.75
2017-04-11T09:20:14.523Z,1018.74
2017-04-11T09:21:15.825Z,1019.6
2017-04-11T09:22:17.106Z,1019.33
2017-04-11T09:23:18.337Z,1019.04
2017-04-11T09:24:19.603Z,1018.98
2017-04-11T09:25:20.872Z,1018.88
2017-04-11T09:26:22.326Z,1018.84
2017-04-11T09:27:23.582Z,1018.85
2017-04-11T09:28:24.842Z,1019.43
2017-04-11T09:29:26.086Z,1019.23
2017-04-11T09:30:27.342Z,1019.17
2017-04-11T09:31:28.603Z,1018.79
2017-04-11T09:32:29.998Z,1019.64
2017-04-11T09:33:31.281Z,1019.06
2017-04-11T09:34:32.570Z,1019.38
2017-04-11T09:35:33.803Z,1019.66
2017-04-11T09:36:35.082Z,1019.55
2017-04-11T09:37:36.613Z,1019.12
2017-04-11T09:38:37.858Z,1019.45
2017-04-11T09:39:39.107Z,1019.47
2017-04-11T09:40:40.374Z,1019.41
2017-04-11T09:41:41.625Z,1019.41
2017-04-11T09:42:42.901Z,1019.21
2017-04-11T09:43:44.164Z,1019.28
2017-04-11T09:44:45.424Z,1019.11
2017-04-11T09:45:46.713Z,1019.14
2017-04-11T09:46:48.101Z,1019.12
2017-04-11T09:47:49.344Z,1019.16
2017-04-11T09:48:50.704Z,1019.07
2017-04-11T09:49:52.028Z,1019.03
2017-04-11T09:50:53.279Z,1019.06
2017-04-11T09:51:54.560Z,1019.06
2017-04-11T09:52:55.816Z,1019.09
2017-04-11T09:53:57.101Z,1019.1
2017-04-11T09:54:58.373Z,1019.06
2017-04-11T09:55:59.706Z,1019.03
2017-04-11T09:57:00.986Z,1019.07
2017-04-11T09:58:02.264Z,1019.09
2017-04-11T09:59:03.509Z,1019.08
2017-04-11T10:00:04.774Z,1019.02
2017-04-11T10:01:06.061Z,1019.05
2017-04-11T10:02:07.290Z,1019.04
2017-04-11T10:03:08.607Z,1019.05
2017-04-11T10:04:09.881Z,1018.99
2017-04-11T10:05:11.287Z,1018.7
2017-04-11T10:06:12.607Z,1018.75
2017-04-11T10:07:13.895Z,1018.72
2017-04-11T10:08:15.155Z,1018.8
2017-04-11T10:09:16.414Z,1018.97
2017-04-11T10:10:17.677Z,1018.86
2017-04-11T10:11:18.937Z,1018.81
2017-04-11T10:12:20.274Z,1018.74
2017-04-11T10:13:21.570Z,1018.77
2017-04-11T10:14:22.832Z,1019.11
2017-04-11T10:15:24.065Z,1018.93
2017-04-11T10:16:25.320Z,1019.1
2017-04-11T10:17:26.593Z,1018.91
2017-04-11T10:18:27.850Z,1018.7
2017-04-11T10:19:29.175Z,1018.7
2017-04-11T10:20:30.456Z,1018.67
2017-04-11T10:21:31.713Z,1018.62
2017-04-11T10:22:33.003Z,1018.63
2017-04-11T10:23:34.217Z,1018.69
2017-04-11T10:24:35.573Z,1018.65
2017-04-11T10:25:36.968Z,1018.66
2017-04-11T10:26:38.310Z,1018.71
2017-04-11T10:27:39.583Z,1018.74
2017-04-11T10:28:40.830Z,1018.68
2017-04-11T10:29:42.087Z,1018.66
2017-04-11T10:30:43.351Z,1018.57
2017-04-11T10:31:44.763Z,1018.68
2017-04-11T10:32:46.154Z,1018.65
2017-04-11T10:33:47.405Z,1018.62
2017-04-11T10:34:48.649Z,1018.61
2017-04-11T10:35:49.885Z,1018.56
2017-04-11T10:36:51.171Z,1018.58
2017-04-11T10:37:52.431Z,1018.59
2017-04-11T10:38:53.679Z,1018.57
2017-04-11T10:39:54.906Z,1018.59
2017-04-11T10:40:56.147Z,1018.56
2017-04-11T10:41:57.455Z,1018.57
2017-04-11T10:42:58.706Z,1018.54
2017-04-11T10:44:00.004Z,1018.49
2017-04-11T10:45:01.240Z,1018.5
2017-04-11T10:46:02.492Z,1018.5
2017-04-11T10:47:03.764Z,1018.51
2017-04-11T10:48:05.091Z,1018.59
2017-04-11T10:49:06.421Z,1018.64
2017-04-11T10:50:07.669Z,1018.71
2017-04-11T10:51:08.959Z,1018.62
2017-04-11T10:52:10.189Z,1018.65
2017-04-11T10:53:11.432Z,1018.73
2017-04-11T10:54:12.736Z,1018.76
2017-04-11T10:55:14.027Z,1018.78
2017-04-11T10:56:15.258Z,1018.79
2017-04-11T10:57:16.503Z,1018.75
2017-04-11T10:58:17.744Z,1018.75
2017-04-11T10:59:19.027Z,1018.7
2017-04-11T11:00:20.282Z,1018.72
2017-04-11T11:01:21.519Z,1018.76
2017-04-11T11:02:22.833Z,1018.74
2017-04-11T11:03:24.153Z,1018.77
2017-04-11T11:04:25.416Z,1018.79
2017-04-11T11:05:26.703Z,1018.8
2017-04-11T11:06:27.920Z,1018.69
2017-04-11T11:07:29.216Z,1018.79
2017-04-11T11:08:30.496Z,1018.71
2017-04-11T11:09:31.757Z,1018.66
2017-04-11T11:10:32.994Z,1018.63
2017-04-11T11:11:34.233Z,1018.57
2017-04-11T11:12:35.582Z,1018.52
2017-04-11T11:13:36.855Z,1018.49
2017-04-11T11:14:38.087Z,1018.36
2017-04-11T11:15:39.327Z,1018.35
2017-04-11T11:16:40.598Z,1018.29
2017-04-11T11:17:41.831Z,1018.32
2017-04-11T11:18:43.090Z,1018.32
2017-04-11T11:19:44.435Z,1018.32
2017-04-11T11:20:45.689Z,1018.32
2017-04-11T11:21:46.935Z,1018.3
2017-04-11T11:22:48.182Z,1018.29
2017-04-11T11:23:49.431Z,1018.26
2017-04-11T11:24:50.670Z,1018.2
2017-04-11T11:25:51.994Z,1018.12
2017-04-11T11:26:53.222Z,1018.18
2017-04-11T11:27:54.537Z,1018.18
2017-04-11T11:28:55.762Z,1018.18
2017-04-11T11:29:57.071Z,1018.21
2017-04-11T11:30:58.485Z,1018.15
2017-04-11T11:31:59.740Z,1018.14
2017-04-11T11:33:00.962Z,1018.13
2017-04-11T11:34:02.233Z,1018.18
2017-04-11T11:35:03.490Z,1018.15
2017-04-11T11:36:04.784Z,1018.2
2017-04-11T11:37:06.007Z,1018.21
2017-04-11T11:38:07.258Z,1018.23
2017-04-11T11:39:08.524Z,1018.15
2017-04-11T11:40:09.769Z,1018.08
2017-04-11T11:41:11.009Z,1018.05
2017-04-11T11:42:12.248Z,1018.05
2017-04-11T11:43:13.513Z,1018.11
2017-04-11T11:44:14.837Z,1018.09
2017-04-11T11:45:16.043Z,1018
2017-04-11T11:46:17.266Z,1017.94
2017-04-11T11:47:18.526Z,1017.96
2017-04-11T11:48:19.768Z,1017.99
2017-04-11T11:49:21.095Z,1017.94
2017-04-11T11:50:22.348Z,1017.94
2017-04-11T11:51:23.614Z,1018
2017-04-11T11:52:24.880Z,1017.97
2017-04-11T11:53:26.158Z,1018.04
2017-04-11T11:54:27.408Z,1018
2017-04-11T11:55:28.656Z,1018.07
2017-04-11T11:56:29.894Z,1018.01
2017-04-11T11:57:31.234Z,1017.97
2017-04-11T11:58:32.476Z,1017.92
2017-04-11T11:59:33.734Z,1017.92
2017-04-11T12:00:34.956Z,1017.95
2017-04-11T12:01:36.203Z,1017.91
2017-04-11T12:02:37.457Z,1017.95
2017-04-11T12:03:38.711Z,1017.89
2017-04-11T12:04:39.949Z,1017.84
2017-04-11T12:05:41.200Z,1017.81
2017-04-11T12:06:42.467Z,1017.79
2017-04-11T12:07:43.687Z,1017.76
2017-04-11T12:08:44.969Z,1017.76
2017-04-11T12:09:46.228Z,1017.8
2017-04-11T12:10:47.487Z,1017.72
2017-04-11T12:11:48.785Z,1017.78
2017-04-11T12:12:50.052Z,1017.71
2017-04-11T12:13:51.291Z,1017.76
2017-04-11T12:14:52.540Z,1017.79
2017-04-11T12:15:53.805Z,1017.79
2017-04-11T12:16:55.211Z,1017.83
2017-04-11T12:17:56.518Z,1017.87
2017-04-11T12:18:57.719Z,1017.91
2017-04-11T12:19:58.968Z,1017.86
2017-04-11T12:21:00.216Z,1017.9
2017-04-11T12:22:01.488Z,1017.85
2017-04-11T12:23:02.827Z,1017.79
2017-04-11T12:24:04.134Z,1017.81